sensor_id;sensor_type;location;lat;lon;timestamp;temperature;humidity
19561;DHT22;9927;47.792;10.616;2024-02-28T04:00:55;5.90;99.90
19561;DHT22;9927;47.792;10.616;2024-02-28T04:03:23;5.80;99.90
19561;DHT22;9927;47.792;10.616;2024-02-28T04:05:50;5.90;99.90
19561;DHT22;9927;47.792;10.616;2024-02-28T04:08:17;6.00;99.90
19561;DHT22;9927;47.792;10.616;2024-02-28T04:10:44;6.10;99.90
19561;DHT22;9927;47.792;10.616;2024-02-28T04:13:12;6.10;99.90
19561;DHT22;9927;47.792;10.616;2024-02-28T04:15:41;6.10;99.90
19561;DHT22;9927;47.792;10.616;2024-02-28T04:18:09;6.10;99.90
19561;DHT22;9927;47.792;10.616;2024-02-28T04:20:36;6.10;99.90
19561;DHT22;9927;47.792;10.616;2024-02-28T04:23:05;6.10;99.90
19561;DHT22;9927;47.792;10.616;2024-02-28T04:25:32;6.10;99.90
19561;DHT22;9927;47.792;10.616;2024-02-28T04:28:02;6.10;99.90
19561;DHT22;9927;47.792;10.616;2024-02-28T04:30:29;6.20;99.90
19561;DHT22;9927;47.792;10.616;2024-02-28T04:32:56;6.20;99.90
19561;DHT22;9927;47.792;10.616;2024-02-28T04:35:24;6.20;99.90
19561;DHT22;9927;47.792;10.616;2024-02-28T04:37:51;6.20;99.90
19561;DHT22;9927;47.792;10.616;2024-02-28T04:40:18;6.20;99.90
19561;DHT22;9927;47.792;10.616;2024-02-28T04:42:46;6.30;99.90
19561;DHT22;9927;47.792;10.616;2024-02-28T04:45:13;6.40;99.90
19561;DHT22;9927;47.792;10.616;2024-02-28T04:47:40;6.20;99.90
19561;DHT22;9927;47.792;10.616;2024-02-28T04:50:11;6.20;99.90
19561;DHT22;9927;47.792;10.616;2024-02-28T04:52:39;6.10;99.90
19561;DHT22;9927;47.792;10.616;2024-02-28T04:55:06;6.10;99.90
19561;DHT22;9927;47.792;10.616;2024-02-28T04:57:34;6.00;99.90
19561;DHT22;9927;47.792;10.616;2024-02-28T05:00:02;6.10;99.90
19561;DHT22;9927;47.792;10.616;2024-02-28T05:02:30;6.10;99.90
19561;DHT22;9927;47.792;10.616;2024-02-28T05:04:58;6.20;99.90
19561;DHT22;9927;47.792;10.616;2024-02-28T05:07:25;6.20;99.90
19561;DHT22;9927;47.792;10.616;2024-02-28T05:09:53;6.10;99.90
19561;DHT22;9927;47.792;10.616;2024-02-28T05:12:20;6.20;99.90
19561;DHT22;9927;47.792;10.616;2024-02-28T05:14:47;6.20;99.90
19561;DHT22;9927;47.792;10.616;2024-02-28T05:17:17;6.30;99.90
19561;DHT22;9927;47.792;10.616;2024-02-28T05:19:45;6.30;99.90
19561;DHT22;9927;47.792;10.616;2024-02-28T05:22:12;6.20;99.90
19561;DHT22;9927;47.792;10.616;2024-02-28T05:24:40;6.30;99.90
19561;DHT22;9927;47.792;10.616;2024-02-28T05:27:10;6.40;99.90
19561;DHT22;9927;47.792;10.616;2024-02-28T05:29:37;6.30;99.90
19561;DHT22;9927;47.792;10.616;2024-02-28T05:32:04;6.30;99.90
19561;DHT22;9927;47.792;10.616;2024-02-28T05:34:32;6.20;99.90
19561;DHT22;9927;47.792;10.616;2024-02-28T05:37:01;6.10;99.90
19561;DHT22;9927;47.792;10.616;2024-02-28T05:39:28;6.10;99.90
19561;DHT22;9927;47.792;10.616;2024-02-28T05:41:59;6.20;99.90
19561;DHT22;9927;47.792;10.616;2024-02-28T05:44:26;6.30;99.90
19561;DHT22;9927;47.792;10.616;2024-02-28T05:46:53;6.40;99.90
19561;DHT22;9927;47.792;10.616;2024-02-28T05:49:20;6.40;99.90
19561;DHT22;9927;47.792;10.616;2024-02-28T05:51:49;6.30;99.90
19561;DHT22;9927;47.792;10.616;2024-02-28T05:54:17;6.40;99.90
19561;DHT22;9927;47.792;10.616;2024-02-28T05:56:44;6.50;99.90
19561;DHT22;9927;47.792;10.616;2024-02-28T05:59:11;6.50;99.90
19561;DHT22;9927;47.792;10.616;2024-02-28T06:01:38;6.50;99.90
19561;DHT22;9927;47.792;10.616;2024-02-28T06:04:07;6.40;99.90
19561;DHT22;9927;47.792;10.616;2024-02-28T06:06:34;6.50;99.90
19561;DHT22;9927;47.792;10.616;2024-02-28T06:09:02;6.50;99.90
19561;DHT22;9927;47.792;10.616;2024-02-28T06:11:29;6.40;99.90
19561;DHT22;9927;47.792;10.616;2024-02-28T06:13:56;6.50;99.90
19561;DHT22;9927;47.792;10.616;2024-02-28T06:16:24;6.60;99.90
19561;DHT22;9927;47.792;10.616;2024-02-28T06:18:51;6.60;99.90
19561;DHT22;9927;47.792;10.616;2024-02-28T06:21:22;6.60;99.90
19561;DHT22;9927;47.792;10.616;2024-02-28T06:23:49;6.50;99.90
19561;DHT22;9927;47.792;10.616;2024-02-28T06:26:16;6.50;99.90
19561;DHT22;9927;47.792;10.616;2024-02-28T06:28:45;6.50;99.90
19561;DHT22;9927;47.792;10.616;2024-02-28T06:31:16;6.60;99.90
19561;DHT22;9927;47.792;10.616;2024-02-28T06:33:44;6.50;99.90
19561;DHT22;9927;47.792;10.616;2024-02-28T06:36:12;6.60;99.90
19561;DHT22;9927;47.792;10.616;2024-02-28T06:38:39;6.60;99.90
19561;DHT22;9927;47.792;10.616;2024-02-28T06:41:06;6.60;99.90
19561;DHT22;9927;47.792;10.616;2024-02-28T06:43:34;6.60;99.90
19561;DHT22;9927;47.792;10.616;2024-02-28T06:46:02;6.60;99.90
19561;DHT22;9927;47.792;10.616;2024-02-28T06:48:30;6.70;99.90
19561;DHT22;9927;47.792;10.616;2024-02-28T06:50:57;6.60;99.90
19561;DHT22;9927;47.792;10.616;2024-02-28T06:53:25;6.60;99.90
19561;DHT22;9927;47.792;10.616;2024-02-28T06:55:53;6.70;99.90
19561;DHT22;9927;47.792;10.616;2024-02-28T06:58:20;6.70;99.90
19561;DHT22;9927;47.792;10.616;2024-02-28T07:00:48;6.70;99.90
19561;DHT22;9927;47.792;10.616;2024-02-28T07:03:20;6.70;99.90
19561;DHT22;9927;47.792;10.616;2024-02-28T07:05:48;6.70;99.90
19561;DHT22;9927;47.792;10.616;2024-02-28T07:08:15;6.70;99.90
19561;DHT22;9927;47.792;10.616;2024-02-28T07:10:42;6.70;99.90
19561;DHT22;9927;47.792;10.616;2024-02-28T07:13:11;6.70;99.90
19561;DHT22;9927;47.792;10.616;2024-02-28T07:15:38;6.80;99.90
19561;DHT22;9927;47.792;10.616;2024-02-28T07:18:08;6.90;99.90
19561;DHT22;9927;47.792;10.616;2024-02-28T07:20:36;6.90;99.90
19561;DHT22;9927;47.792;10.616;2024-02-28T07:23:03;6.90;99.90
19561;DHT22;9927;47.792;10.616;2024-02-28T07:25:30;6.90;99.90
19561;DHT22;9927;47.792;10.616;2024-02-28T07:27:59;6.90;99.90
19561;DHT22;9927;47.792;10.616;2024-02-28T07:30:26;6.80;99.90
19561;DHT22;9927;47.792;10.616;2024-02-28T07:32:54;6.90;99.90
19561;DHT22;9927;47.792;10.616;2024-02-28T07:35:22;6.90;99.90
19561;DHT22;9927;47.792;10.616;2024-02-28T07:37:50;6.90;99.90
19561;DHT22;9927;47.792;10.616;2024-02-28T07:40:18;7.00;99.90
19561;DHT22;9927;47.792;10.616;2024-02-28T07:42:45;7.00;99.90
19561;DHT22;9927;47.792;10.616;2024-02-28T07:45:13;7.00;99.90
19561;DHT22;9927;47.792;10.616;2024-02-28T07:47:40;7.10;99.90
19561;DHT22;9927;47.792;10.616;2024-02-28T07:50:08;7.10;99.90
19561;DHT22;9927;47.792;10.616;2024-02-28T07:52:35;7.20;99.90
19561;DHT22;9927;47.792;10.616;2024-02-28T07:55:05;7.20;99.90
19561;DHT22;9927;47.792;10.616;2024-02-28T07:57:32;7.20;99.90
19561;DHT22;9927;47.792;10.616;2024-02-28T08:00:00;7.20;99.90
19561;DHT22;9927;47.792;10.616;2024-02-28T08:02:27;7.10;99.90
19561;DHT22;9927;47.792;10.616;2024-02-28T08:04:56;7.10;99.90
19561;DHT22;9927;47.792;10.616;2024-02-28T08:07:23;7.10;99.90
19561;DHT22;9927;47.792;10.616;2024-02-28T08:09:50;7.00;99.90
19561;DHT22;9927;47.792;10.616;2024-02-28T08:12:18;7.00;99.90
19561;DHT22;9927;47.792;10.616;2024-02-28T08:14:45;6.90;99.90
19561;DHT22;9927;47.792;10.616;2024-02-28T08:17:13;6.90;99.90
19561;DHT22;9927;47.792;10.616;2024-02-28T08:19:41;7.00;99.90
19561;DHT22;9927;47.792;10.616;2024-02-28T08:22:09;6.90;99.90
19561;DHT22;9927;47.792;10.616;2024-02-28T08:24:38;6.80;99.90
19561;DHT22;9927;47.792;10.616;2024-02-28T08:27:06;6.80;99.90
19561;DHT22;9927;47.792;10.616;2024-02-28T08:29:33;6.80;99.90
19561;DHT22;9927;47.792;10.616;2024-02-28T08:32:02;6.80;99.90
19561;DHT22;9927;47.792;10.616;2024-02-28T08:34:30;6.70;99.90
19561;DHT22;9927;47.792;10.616;2024-02-28T08:36:57;6.70;99.90
19561;DHT22;9927;47.792;10.616;2024-02-28T08:39:24;6.70;99.90
19561;DHT22;9927;47.792;10.616;2024-02-28T08:41:52;6.60;99.90
19561;DHT22;9927;47.792;10.616;2024-02-28T08:44:19;6.60;99.90
19561;DHT22;9927;47.792;10.616;2024-02-28T08:46:48;6.60;99.90
19561;DHT22;9927;47.792;10.616;2024-02-28T08:49:15;6.70;99.90
19561;DHT22;9927;47.792;10.616;2024-02-28T08:51:44;6.60;99.90
19561;DHT22;9927;47.792;10.616;2024-02-28T08:54:14;6.60;99.90
19561;DHT22;9927;47.792;10.616;2024-02-28T08:56:42;6.70;99.90
19561;DHT22;9927;47.792;10.616;2024-02-28T08:59:22;6.60;99.90
19561;DHT22;9927;47.792;10.616;2024-02-28T09:01:49;6.70;99.90
19561;DHT22;9927;47.792;10.616;2024-02-28T09:04:17;6.60;99.90
19561;DHT22;9927;47.792;10.616;2024-02-28T09:06:44;6.50;99.90
19561;DHT22;9927;47.792;10.616;2024-02-28T09:09:11;6.60;99.90
19561;DHT22;9927;47.792;10.616;2024-02-28T09:11:39;6.60;99.90
19561;DHT22;9927;47.792;10.616;2024-02-28T09:14:06;6.60;99.90
19561;DHT22;9927;47.792;10.616;2024-02-28T09:16:33;6.70;99.90
19561;DHT22;9927;47.792;10.616;2024-02-28T09:19:01;6.70;99.90
19561;DHT22;9927;47.792;10.616;2024-02-28T09:21:28;6.70;99.90
19561;DHT22;9927;47.792;10.616;2024-02-28T09:23:55;6.80;99.90
19561;DHT22;9927;47.792;10.616;2024-02-28T09:26:23;6.80;99.90
19561;DHT22;9927;47.792;10.616;2024-02-28T09:28:50;6.90;99.90
19561;DHT22;9927;47.792;10.616;2024-02-28T09:31:18;6.90;99.90
19561;DHT22;9927;47.792;10.616;2024-02-28T09:33:45;6.90;99.90
19561;DHT22;9927;47.792;10.616;2024-02-28T09:36:13;7.00;99.90
19561;DHT22;9927;47.792;10.616;2024-02-28T09:38:41;7.00;99.90
19561;DHT22;9927;47.792;10.616;2024-02-28T09:41:14;7.00;99.90
19561;DHT22;9927;47.792;10.616;2024-02-28T09:43:42;7.00;99.90
19561;DHT22;9927;47.792;10.616;2024-02-28T09:46:10;7.10;99.90
19561;DHT22;9927;47.792;10.616;2024-02-28T09:48:40;7.10;99.90
19561;DHT22;9927;47.792;10.616;2024-02-28T09:51:13;7.30;99.90
19561;DHT22;9927;47.792;10.616;2024-02-28T09:53:41;7.30;99.90
19561;DHT22;9927;47.792;10.616;2024-02-28T09:56:09;7.40;99.90
19561;DHT22;9927;47.792;10.616;2024-02-28T09:58:36;7.40;99.90
19561;DHT22;9927;47.792;10.616;2024-02-28T10:01:07;7.60;99.90
19561;DHT22;9927;47.792;10.616;2024-02-28T10:03:36;7.50;99.90
19561;DHT22;9927;47.792;10.616;2024-02-28T10:06:05;7.60;99.90
19561;DHT22;9927;47.792;10.616;2024-02-28T10:08:34;7.60;99.90
19561;DHT22;9927;47.792;10.616;2024-02-28T10:11:02;7.60;99.90
19561;DHT22;9927;47.792;10.616;2024-02-28T10:13:29;7.60;99.90
19561;DHT22;9927;47.792;10.616;2024-02-28T10:15:57;7.70;99.90
19561;DHT22;9927;47.792;10.616;2024-02-28T10:18:25;7.80;99.90
19561;DHT22;9927;47.792;10.616;2024-02-28T10:20:53;7.80;99.90
19561;DHT22;9927;47.792;10.616;2024-02-28T10:23:20;7.70;99.90
19561;DHT22;9927;47.792;10.616;2024-02-28T10:25:48;7.80;99.90
19561;DHT22;9927;47.792;10.616;2024-02-28T10:28:23;7.70;99.90
19561;DHT22;9927;47.792;10.616;2024-02-28T10:30:52;7.70;99.90
19561;DHT22;9927;47.792;10.616;2024-02-28T10:33:20;8.00;99.90
19561;DHT22;9927;47.792;10.616;2024-02-28T10:35:50;8.10;99.90
19561;DHT22;9927;47.792;10.616;2024-02-28T10:38:20;8.00;99.90
19561;DHT22;9927;47.792;10.616;2024-02-28T10:40:48;8.00;99.90
19561;DHT22;9927;47.792;10.616;2024-02-28T10:43:17;8.00;99.90
19561;DHT22;9927;47.792;10.616;2024-02-28T10:45:46;8.00;99.90
19561;DHT22;9927;47.792;10.616;2024-02-28T10:48:36;7.90;99.90
19561;DHT22;9927;47.792;10.616;2024-02-28T10:51:04;7.90;99.90
19561;DHT22;9927;47.792;10.616;2024-02-28T10:53:38;7.90;99.90
19561;DHT22;9927;47.792;10.616;2024-02-28T10:56:10;7.90;99.90
19561;DHT22;9927;47.792;10.616;2024-02-28T10:58:51;8.00;99.90
19561;DHT22;9927;47.792;10.616;2024-02-28T11:01:20;8.00;99.90
19561;DHT22;9927;47.792;10.616;2024-02-28T11:03:50;8.00;99.90
19561;DHT22;9927;47.792;10.616;2024-02-28T11:06:18;8.00;99.90
19561;DHT22;9927;47.792;10.616;2024-02-28T11:08:49;8.00;99.90
19561;DHT22;9927;47.792;10.616;2024-02-28T11:11:20;8.00;99.90
19561;DHT22;9927;47.792;10.616;2024-02-28T11:13:55;8.00;99.90
19561;DHT22;9927;47.792;10.616;2024-02-28T11:16:40;8.00;99.90
19561;DHT22;9927;47.792;10.616;2024-02-28T11:19:21;8.10;99.90
19561;DHT22;9927;47.792;10.616;2024-02-28T11:21:54;8.20;99.90
19561;DHT22;9927;47.792;10.616;2024-02-28T11:24:34;8.20;99.90
19561;DHT22;9927;47.792;10.616;2024-02-28T11:27:04;8.20;99.90
19561;DHT22;9927;47.792;10.616;2024-02-28T11:29:33;8.40;99.90
19561;DHT22;9927;47.792;10.616;2024-02-28T11:32:00;8.40;99.90
19561;DHT22;9927;47.792;10.616;2024-02-28T11:34:27;8.50;99.90
19561;DHT22;9927;47.792;10.616;2024-02-28T11:36:55;8.50;99.90
19561;DHT22;9927;47.792;10.616;2024-02-28T11:39:23;8.50;99.90
19561;DHT22;9927;47.792;10.616;2024-02-28T11:41:53;8.60;99.90
19561;DHT22;9927;47.792;10.616;2024-02-28T11:44:20;8.60;99.90
19561;DHT22;9927;47.792;10.616;2024-02-28T11:46:48;8.60;99.90
19561;DHT22;9927;47.792;10.616;2024-02-28T11:49:17;8.50;99.90
19561;DHT22;9927;47.792;10.616;2024-02-28T11:51:44;8.50;99.90
19561;DHT22;9927;47.792;10.616;2024-02-28T11:54:12;8.60;99.90
19561;DHT22;9927;47.792;10.616;2024-02-28T11:56:40;8.50;99.90
19561;DHT22;9927;47.792;10.616;2024-02-28T11:59:10;8.60;99.90
19561;DHT22;9927;47.792;10.616;2024-02-28T12:01:42;8.70;99.90
19561;DHT22;9927;47.792;10.616;2024-02-28T12:04:14;8.70;99.90
19561;DHT22;9927;47.792;10.616;2024-02-28T12:06:41;8.60;99.90
19561;DHT22;9927;47.792;10.616;2024-02-28T12:09:11;8.50;99.90
19561;DHT22;9927;47.792;10.616;2024-02-28T12:11:47;8.50;99.90
19561;DHT22;9927;47.792;10.616;2024-02-28T12:14:14;8.50;99.90
19561;DHT22;9927;47.792;10.616;2024-02-28T12:16:42;8.40;99.90
19561;DHT22;9927;47.792;10.616;2024-02-28T12:19:12;8.30;99.90
19561;DHT22;9927;47.792;10.616;2024-02-28T12:21:40;8.20;99.90
19561;DHT22;9927;47.792;10.616;2024-02-28T12:24:08;8.30;99.90
19561;DHT22;9927;47.792;10.616;2024-02-28T12:26:37;8.10;99.90
19561;DHT22;9927;47.792;10.616;2024-02-28T12:29:05;8.10;99.90
19561;DHT22;9927;47.792;10.616;2024-02-28T12:31:33;8.20;99.90
19561;DHT22;9927;47.792;10.616;2024-02-28T12:34:00;8.20;99.90
19561;DHT22;9927;47.792;10.616;2024-02-28T12:36:28;8.30;99.90
19561;DHT22;9927;47.792;10.616;2024-02-28T12:38:55;8.20;99.90
19561;DHT22;9927;47.792;10.616;2024-02-28T12:41:23;8.10;99.90
19561;DHT22;9927;47.792;10.616;2024-02-28T12:43:50;8.20;99.90
19561;DHT22;9927;47.792;10.616;2024-02-28T12:46:17;8.20;99.90
19561;DHT22;9927;47.792;10.616;2024-02-28T12:48:44;8.30;99.90
19561;DHT22;9927;47.792;10.616;2024-02-28T12:51:40;8.30;99.90
19561;DHT22;9927;47.792;10.616;2024-02-28T12:54:08;8.30;99.90
19561;DHT22;9927;47.792;10.616;2024-02-28T12:56:37;8.20;99.90
19561;DHT22;9927;47.792;10.616;2024-02-28T12:59:05;8.30;99.90
19561;DHT22;9927;47.792;10.616;2024-02-28T13:01:34;8.10;99.90
19561;DHT22;9927;47.792;10.616;2024-02-28T13:04:02;8.00;99.90
19561;DHT22;9927;47.792;10.616;2024-02-28T13:06:29;8.00;99.90
19561;DHT22;9927;47.792;10.616;2024-02-28T13:08:57;7.90;99.90
19561;DHT22;9927;47.792;10.616;2024-02-28T13:11:25;7.90;99.90
19561;DHT22;9927;47.792;10.616;2024-02-28T13:13:52;7.90;99.90
19561;DHT22;9927;47.792;10.616;2024-02-28T13:16:20;8.00;99.90
19561;DHT22;9927;47.792;10.616;2024-02-28T13:18:49;7.90;99.90
19561;DHT22;9927;47.792;10.616;2024-02-28T13:21:16;7.90;99.90
19561;DHT22;9927;47.792;10.616;2024-02-28T13:23:44;7.90;99.90
19561;DHT22;9927;47.792;10.616;2024-02-28T13:26:11;7.80;99.90
19561;DHT22;9927;47.792;10.616;2024-02-28T13:28:45;7.70;99.90
19561;DHT22;9927;47.792;10.616;2024-02-28T13:31:16;7.80;99.90
19561;DHT22;9927;47.792;10.616;2024-02-28T13:33:44;7.80;99.90
19561;DHT22;9927;47.792;10.616;2024-02-28T13:36:11;7.80;99.90
19561;DHT22;9927;47.792;10.616;2024-02-28T13:38:38;7.80;99.90
19561;DHT22;9927;47.792;10.616;2024-02-28T13:41:06;7.80;99.90
19561;DHT22;9927;47.792;10.616;2024-02-28T13:43:33;8.00;99.90
19561;DHT22;9927;47.792;10.616;2024-02-28T13:46:00;7.90;99.90
19561;DHT22;9927;47.792;10.616;2024-02-28T13:48:28;7.80;99.90
19561;DHT22;9927;47.792;10.616;2024-02-28T13:50:56;7.60;99.90
19561;DHT22;9927;47.792;10.616;2024-02-28T13:53:24;7.60;99.90
19561;DHT22;9927;47.792;10.616;2024-02-28T13:55:52;7.50;99.90
19561;DHT22;9927;47.792;10.616;2024-02-28T13:58:19;7.40;99.90
19561;DHT22;9927;47.792;10.616;2024-02-28T14:00:47;7.30;99.90
19561;DHT22;9927;47.792;10.616;2024-02-28T14:03:15;7.30;99.90
19561;DHT22;9927;47.792;10.616;2024-02-28T14:05:42;7.20;99.90
19561;DHT22;9927;47.792;10.616;2024-02-28T14:08:10;7.20;99.90
19561;DHT22;9927;47.792;10.616;2024-02-28T14:10:40;7.10;99.90
19561;DHT22;9927;47.792;10.616;2024-02-28T14:13:07;7.20;99.90
19561;DHT22;9927;47.792;10.616;2024-02-28T14:15:34;7.10;99.90
19561;DHT22;9927;47.792;10.616;2024-02-28T14:18:03;7.10;99.90
19561;DHT22;9927;47.792;10.616;2024-02-28T14:20:31;7.20;99.90
19561;DHT22;9927;47.792;10.616;2024-02-28T14:22:58;7.20;99.90
19561;DHT22;9927;47.792;10.616;2024-02-28T14:25:26;7.20;99.90
19561;DHT22;9927;47.792;10.616;2024-02-28T14:27:53;7.10;99.90
19561;DHT22;9927;47.792;10.616;2024-02-28T14:30:21;7.10;99.90
19561;DHT22;9927;47.792;10.616;2024-02-28T14:32:49;7.20;99.90
19561;DHT22;9927;47.792;10.616;2024-02-28T14:35:16;7.10;99.90
19561;DHT22;9927;47.792;10.616;2024-02-28T14:37:44;7.10;99.90
19561;DHT22;9927;47.792;10.616;2024-02-28T14:40:11;7.00;99.90
19561;DHT22;9927;47.792;10.616;2024-02-28T14:42:40;7.00;99.90
19561;DHT22;9927;47.792;10.616;2024-02-28T14:45:09;6.90;99.90
19561;DHT22;9927;47.792;10.616;2024-02-28T14:47:41;7.00;99.90
19561;DHT22;9927;47.792;10.616;2024-02-28T14:50:10;6.90;99.90
19561;DHT22;9927;47.792;10.616;2024-02-28T14:52:38;7.10;99.90
19561;DHT22;9927;47.792;10.616;2024-02-28T14:55:09;6.90;99.90
19561;DHT22;9927;47.792;10.616;2024-02-28T14:57:37;7.00;99.90
19561;DHT22;9927;47.792;10.616;2024-02-28T15:00:08;6.90;99.90
19561;DHT22;9927;47.792;10.616;2024-02-28T15:02:36;6.80;99.90
19561;DHT22;9927;47.792;10.616;2024-02-28T15:05:03;6.70;99.90
19561;DHT22;9927;47.792;10.616;2024-02-28T15:07:34;6.70;99.90
19561;DHT22;9927;47.792;10.616;2024-02-28T15:10:07;6.70;99.90
19561;DHT22;9927;47.792;10.616;2024-02-28T15:12:35;6.80;99.90
19561;DHT22;9927;47.792;10.616;2024-02-28T15:15:04;6.80;99.90
19561;DHT22;9927;47.792;10.616;2024-02-28T15:17:33;6.80;99.90
19561;DHT22;9927;47.792;10.616;2024-02-28T15:20:05;6.80;99.90
19561;DHT22;9927;47.792;10.616;2024-02-28T15:22:35;6.90;99.90
19561;DHT22;9927;47.792;10.616;2024-02-28T15:25:03;6.80;99.90
19561;DHT22;9927;47.792;10.616;2024-02-28T15:27:30;6.80;99.90
19561;DHT22;9927;47.792;10.616;2024-02-28T15:29:59;6.70;99.90
19561;DHT22;9927;47.792;10.616;2024-02-28T15:32:26;6.70;99.90
19561;DHT22;9927;47.792;10.616;2024-02-28T15:34:54;6.70;99.90
19561;DHT22;9927;47.792;10.616;2024-02-28T15:37:22;6.70;99.90
19561;DHT22;9927;47.792;10.616;2024-02-28T15:39:49;6.70;99.90
19561;DHT22;9927;47.792;10.616;2024-02-28T15:42:17;6.60;99.90
19561;DHT22;9927;47.792;10.616;2024-02-28T15:44:44;6.50;99.90
19561;DHT22;9927;47.792;10.616;2024-02-28T15:47:12;6.40;99.90
19561;DHT22;9927;47.792;10.616;2024-02-28T15:49:42;6.50;99.90
19561;DHT22;9927;47.792;10.616;2024-02-28T15:52:10;6.50;99.90
19561;DHT22;9927;47.792;10.616;2024-02-28T15:54:37;6.60;99.90
19561;DHT22;9927;47.792;10.616;2024-02-28T15:57:08;6.60;99.90
19561;DHT22;9927;47.792;10.616;2024-02-28T15:59:38;6.60;99.90
19561;DHT22;9927;47.792;10.616;2024-02-28T16:02:09;6.60;99.90
19561;DHT22;9927;47.792;10.616;2024-02-28T16:04:37;6.60;99.90
19561;DHT22;9927;47.792;10.616;2024-02-28T16:07:04;6.60;99.90
19561;DHT22;9927;47.792;10.616;2024-02-28T16:09:32;6.80;99.90
19561;DHT22;9927;47.792;10.616;2024-02-28T16:12:00;6.70;99.90
19561;DHT22;9927;47.792;10.616;2024-02-28T16:14:29;6.70;99.90
19561;DHT22;9927;47.792;10.616;2024-02-28T16:16:56;6.70;99.90
19561;DHT22;9927;47.792;10.616;2024-02-28T16:19:24;6.70;99.90
19561;DHT22;9927;47.792;10.616;2024-02-28T16:21:54;6.70;99.90
19561;DHT22;9927;47.792;10.616;2024-02-28T16:24:22;6.60;99.90
19561;DHT22;9927;47.792;10.616;2024-02-28T16:26:49;6.60;99.90
19561;DHT22;9927;47.792;10.616;2024-02-28T16:29:17;6.60;99.90
19561;DHT22;9927;47.792;10.616;2024-02-28T16:31:44;6.60;99.90
19561;DHT22;9927;47.792;10.616;2024-02-28T16:34:17;6.70;99.90
19561;DHT22;9927;47.792;10.616;2024-02-28T16:36:45;6.70;99.90
19561;DHT22;9927;47.792;10.616;2024-02-28T16:39:13;6.80;99.90
19561;DHT22;9927;47.792;10.616;2024-02-28T16:41:41;6.80;99.90
19561;DHT22;9927;47.792;10.616;2024-02-28T16:44:08;6.70;99.90
19561;DHT22;9927;47.792;10.616;2024-02-28T16:46:35;6.80;99.90
19561;DHT22;9927;47.792;10.616;2024-02-28T16:49:03;6.70;99.90
19561;DHT22;9927;47.792;10.616;2024-02-28T16:51:30;6.70;99.90
19561;DHT22;9927;47.792;10.616;2024-02-28T16:53:57;6.60;99.90
19561;DHT22;9927;47.792;10.616;2024-02-28T16:56:25;6.60;99.90
19561;DHT22;9927;47.792;10.616;2024-02-28T16:58:52;6.80;99.90
19561;DHT22;9927;47.792;10.616;2024-02-28T17:01:19;6.70;99.90
19561;DHT22;9927;47.792;10.616;2024-02-28T17:03:51;6.70;99.90
19561;DHT22;9927;47.792;10.616;2024-02-28T17:06:19;6.60;99.90
19561;DHT22;9927;47.792;10.616;2024-02-28T17:08:46;6.70;99.90
19561;DHT22;9927;47.792;10.616;2024-02-28T17:11:13;6.70;99.90
19561;DHT22;9927;47.792;10.616;2024-02-28T17:13:41;6.80;99.90
19561;DHT22;9927;47.792;10.616;2024-02-28T17:16:09;6.80;99.90
19561;DHT22;9927;47.792;10.616;2024-02-28T17:18:36;6.70;99.90
19561;DHT22;9927;47.792;10.616;2024-02-28T17:21:04;6.80;99.90
19561;DHT22;9927;47.792;10.616;2024-02-28T17:23:31;6.80;99.90
19561;DHT22;9927;47.792;10.616;2024-02-28T17:25:59;6.90;99.90
19561;DHT22;9927;47.792;10.616;2024-02-28T17:28:26;6.90;99.90
19561;DHT22;9927;47.792;10.616;2024-02-28T17:30:54;6.90;99.90
19561;DHT22;9927;47.792;10.616;2024-02-28T17:33:21;6.90;99.90
19561;DHT22;9927;47.792;10.616;2024-02-28T17:35:52;7.00;99.90
19561;DHT22;9927;47.792;10.616;2024-02-28T17:38:19;7.00;99.90
19561;DHT22;9927;47.792;10.616;2024-02-28T17:40:47;7.00;99.90
19561;DHT22;9927;47.792;10.616;2024-02-28T17:43:14;7.00;99.90
19561;DHT22;9927;47.792;10.616;2024-02-28T17:45:43;7.00;99.90
19561;DHT22;9927;47.792;10.616;2024-02-28T17:48:10;6.90;99.90
19561;DHT22;9927;47.792;10.616;2024-02-28T17:50:39;6.90;99.90
19561;DHT22;9927;47.792;10.616;2024-02-28T17:53:07;6.80;99.90
19561;DHT22;9927;47.792;10.616;2024-02-28T17:55:34;6.90;99.90
19561;DHT22;9927;47.792;10.616;2024-02-28T17:58:01;6.90;99.90
19561;DHT22;9927;47.792;10.616;2024-02-28T18:00:29;6.90;99.90
19561;DHT22;9927;47.792;10.616;2024-02-28T18:02:58;6.90;99.90
19561;DHT22;9927;47.792;10.616;2024-02-28T18:05:25;6.90;99.90
19561;DHT22;9927;47.792;10.616;2024-02-28T18:07:54;7.00;99.90
19561;DHT22;9927;47.792;10.616;2024-02-28T18:10:22;6.90;99.90
19561;DHT22;9927;47.792;10.616;2024-02-28T18:12:50;6.90;99.90
19561;DHT22;9927;47.792;10.616;2024-02-28T18:15:18;7.00;99.90
19561;DHT22;9927;47.792;10.616;2024-02-28T18:17:45;7.00;99.90
19561;DHT22;9927;47.792;10.616;2024-02-28T18:20:12;7.00;99.90
19561;DHT22;9927;47.792;10.616;2024-02-28T18:22:40;7.00;99.90
19561;DHT22;9927;47.792;10.616;2024-02-28T18:25:08;6.90;99.90
19561;DHT22;9927;47.792;10.616;2024-02-28T18:27:35;6.90;99.90
19561;DHT22;9927;47.792;10.616;2024-02-28T18:30:03;6.90;99.90
19561;DHT22;9927;47.792;10.616;2024-02-28T18:32:30;6.90;99.90
19561;DHT22;9927;47.792;10.616;2024-02-28T18:34:58;6.90;99.90
19561;DHT22;9927;47.792;10.616;2024-02-28T18:37:26;6.80;99.90
19561;DHT22;9927;47.792;10.616;2024-02-28T18:39:56;6.80;99.90
19561;DHT22;9927;47.792;10.616;2024-02-28T18:42:23;6.70;99.90
19561;DHT22;9927;47.792;10.616;2024-02-28T18:44:54;6.70;99.90
19561;DHT22;9927;47.792;10.616;2024-02-28T18:47:23;6.70;99.90
19561;DHT22;9927;47.792;10.616;2024-02-28T18:49:53;6.70;99.90
19561;DHT22;9927;47.792;10.616;2024-02-28T18:52:21;6.70;99.90
19561;DHT22;9927;47.792;10.616;2024-02-28T18:54:49;6.60;99.90
19561;DHT22;9927;47.792;10.616;2024-02-28T18:57:16;6.60;99.90
19561;DHT22;9927;47.792;10.616;2024-02-28T18:59:44;6.60;99.90
19561;DHT22;9927;47.792;10.616;2024-02-28T19:02:11;6.60;99.90
19561;DHT22;9927;47.792;10.616;2024-02-28T19:04:38;6.70;99.90
19561;DHT22;9927;47.792;10.616;2024-02-28T19:07:06;6.70;99.90
19561;DHT22;9927;47.792;10.616;2024-02-28T19:09:33;6.70;99.90
19561;DHT22;9927;47.792;10.616;2024-02-28T19:12:00;6.70;99.90
19561;DHT22;9927;47.792;10.616;2024-02-28T19:14:28;6.70;99.90
19561;DHT22;9927;47.792;10.616;2024-02-28T19:16:55;6.70;99.90
19561;DHT22;9927;47.792;10.616;2024-02-28T19:19:22;6.70;99.90
19561;DHT22;9927;47.792;10.616;2024-02-28T19:21:50;6.60;99.90
19561;DHT22;9927;47.792;10.616;2024-02-28T19:24:17;6.60;99.90
19561;DHT22;9927;47.792;10.616;2024-02-28T19:26:46;6.70;99.90
19561;DHT22;9927;47.792;10.616;2024-02-28T19:29:13;6.60;99.90
19561;DHT22;9927;47.792;10.616;2024-02-28T19:31:41;6.70;99.90
19561;DHT22;9927;47.792;10.616;2024-02-28T19:34:08;6.70;99.90
19561;DHT22;9927;47.792;10.616;2024-02-28T19:36:36;6.80;99.90
19561;DHT22;9927;47.792;10.616;2024-02-28T19:39:03;6.70;99.90
19561;DHT22;9927;47.792;10.616;2024-02-28T19:41:31;6.70;99.90
19561;DHT22;9927;47.792;10.616;2024-02-28T19:43:59;6.70;99.90
19561;DHT22;9927;47.792;10.616;2024-02-28T19:46:27;6.70;99.90
19561;DHT22;9927;47.792;10.616;2024-02-28T19:48:55;6.60;99.90
19561;DHT22;9927;47.792;10.616;2024-02-28T19:51:22;6.50;99.90